Time;durP1;ratioP1;P1;durP2;ratioP2;P2;SDS_P1;SDS_P2;PMS_P1;PMS_P2;Temp;Humidity;BMP_temperature;BMP_pressure;BME280_temperature;BME280_humidity;BME280_pressure;Samples;Min_cycle;Max_cycle;Signal;HPM_P1;HPM_P2
2021/10/07 00:00:16;;;;;;;45.08;9.48;;;;;;;6.19;54.46;102494.77;1712343;83;27494;-66
2021/10/07 00:02:45;;;;;;;38.88;8.98;;;;;;;6.17;54.65;102498.45;1712467;83;25783;-66
2021/10/07 00:05:12;;;;;;;22.80;8.73;;;;;;;6.15;54.74;102497.16;1711755;83;25811;-66
2021/10/07 00:07:40;;;;;;;33.20;8.35;;;;;;;6.14;54.64;102494.07;1701427;83;25805;-66
2021/10/07 00:10:08;;;;;;;36.98;8.80;;;;;;;6.15;54.60;102489.62;1683707;85;25832;-65
2021/10/07 00:12:35;;;;;;;25.80;7.60;;;;;;;6.11;54.62;102489.73;1734075;82;28047;-67
2021/10/07 00:15:05;;;;;;;29.98;7.60;;;;;;;6.10;54.54;102488.47;1734506;81;26432;-66
2021/10/07 00:17:32;;;;;;;42.62;8.38;;;;;;;6.08;54.65;102491.67;1734617;82;25827;-66
2021/10/07 00:19:59;;;;;;;24.82;6.62;;;;;;;6.06;54.70;102489.07;1710613;82;25811;-67
2021/10/07 00:22:27;;;;;;;25.80;7.25;;;;;;;6.04;54.61;102492.75;1705806;84;25728;-67
2021/10/07 00:24:54;;;;;;;25.48;7.45;;;;;;;6.04;54.58;102490.93;1706475;83;28227;-66
2021/10/07 00:27:21;;;;;;;30.37;6.40;;;;;;;6.04;54.63;102487.41;1712195;83;25841;-67
2021/10/07 00:29:50;;;;;;;25.15;7.58;;;;;;;6.02;54.70;102497.28;1712404;82;25791;-69
2021/10/07 00:35:07;;;;;;;24.52;7.08;;;;;;;5.99;54.77;102492.94;1712400;83;25834;-66
2021/10/07 00:39:02;;;;;;;26.23;7.62;;;;;;;5.98;54.63;102493.84;1691664;83;28221;-68
2021/10/07 00:39:54;;;;;;;27.82;7.55;;;;;;;5.97;54.61;102492.09;1722763;82;25810;-67
2021/10/07 00:42:22;;;;;;;25.65;8.35;;;;;;;5.96;54.70;102493.02;1722559;83;25791;-68
2021/10/07 00:44:49;;;;;;;27.22;6.90;;;;;;;5.94;54.67;102493.09;1714074;83;26457;-66
2021/10/07 00:47:17;;;;;;;17.62;6.53;;;;;;;5.92;54.71;102490.95;1712904;83;26348;-68
2021/10/07 00:49:45;;;;;;;32.42;7.22;;;;;;;5.91;54.75;102498.56;1722681;83;27450;-66
2021/10/07 00:52:17;;;;;;;34.27;8.60;;;;;;;5.88;54.79;102490.66;1722627;83;25785;-67
2021/10/07 00:54:50;;;;;;;28.50;6.80;;;;;;;5.89;54.92;102494.22;1722674;83;25885;-67
2021/10/07 00:57:20;;;;;;;35.75;8.05;;;;;;;5.88;54.98;102492.00;1722949;83;25840;-66
2021/10/07 00:59:50;;;;;;;32.28;7.58;;;;;;;5.83;55.03;102487.32;1699311;83;25814;-67
2021/10/07 01:02:19;;;;;;;22.07;8.05;;;;;;;5.81;55.13;102489.17;1722612;81;27547;-66
2021/10/07 01:04:46;;;;;;;29.20;8.40;;;;;;;5.78;55.16;102492.84;1722843;83;25779;-67
2021/10/07 01:07:16;;;;;;;29.98;8.55;;;;;;;5.74;55.29;102485.02;1722683;83;25833;-67
2021/10/07 01:09:44;;;;;;;27.07;8.33;;;;;;;5.71;55.39;102487.36;1722167;83;25851;-67
2021/10/07 01:12:12;;;;;;;28.80;7.62;;;;;;;5.67;55.55;102486.22;1735049;81;26309;-67
2021/10/07 01:14:52;;;;;;;19.67;7.00;;;;;;;5.63;55.74;102486.33;1737602;81;27477;-66
2021/10/07 01:17:24;;;;;;;30.35;6.87;;;;;;;5.60;55.80;102481.58;1721506;81;25971;-65
2021/10/07 01:19:54;;;;;;;24.70;6.87;;;;;;;5.59;55.80;102486.51;1721200;82;25781;-66
2021/10/07 01:22:24;;;;;;;17.45;7.03;;;;;;;5.57;55.89;102480.36;1722653;83;25790;-66
2021/10/07 01:24:51;;;;;;;37.88;7.10;;;;;;;5.55;55.89;102484.43;1723001;81;25793;-65
2021/10/07 01:27:26;;;;;;;29.40;7.70;;;;;;;5.52;55.98;102488.55;1667955;83;27538;-66
2021/10/07 01:29:57;;;;;;;31.12;7.62;;;;;;;5.49;56.10;102481.53;1645773;85;25721;-67
2021/10/07 01:32:25;;;;;;;34.70;8.15;;;;;;;5.46;56.06;102480.79;1659639;85;25723;-67
2021/10/07 01:34:53;;;;;;;35.25;7.33;;;;;;;5.45;56.08;102488.39;1723780;81;25866;-66
2021/10/07 01:37:19;;;;;;;28.30;6.60;;;;;;;5.44;55.88;102480.86;1723656;81;25742;-67
2021/10/07 01:39:47;;;;;;;38.75;8.43;;;;;;;5.43;56.37;102479.56;1719682;82;27463;-67
2021/10/07 01:42:14;;;;;;;25.75;6.97;;;;;;;5.40;56.34;102489.05;1729619;82;25758;-67
2021/10/07 01:44:41;;;;;;;34.63;7.85;;;;;;;5.37;56.05;102483.38;1741301;81;25708;-67
2021/10/07 01:47:08;;;;;;;37.78;7.22;;;;;;;5.38;55.95;102489.56;1741206;82;26198;-67
2021/10/07 01:49:35;;;;;;;43.63;7.97;;;;;;;5.39;56.29;102492.65;1741383;82;26240;-66
2021/10/07 01:52:05;;;;;;;36.35;7.70;;;;;;;5.37;55.91;102492.72;1720873;83;27950;-67
2021/10/07 01:54:32;;;;;;;30.12;10.45;;;;;;;5.39;55.79;102496.17;1721197;83;25767;-67
2021/10/07 01:56:59;;;;;;;28.65;7.58;;;;;;;5.41;55.70;102503.66;1721127;82;25671;-67
2021/10/07 01:59:26;;;;;;;31.07;8.10;;;;;;;5.42;55.59;102504.55;1720513;83;26324;-66
2021/10/07 02:01:54;;;;;;;36.28;7.87;;;;;;;5.43;55.60;102502.25;1719838;83;25806;-65
2021/10/07 02:04:21;;;;;;;39.83;8.03;;;;;;;5.44;55.74;102504.00;1719724;83;28693;-66
2021/10/07 02:06:48;;;;;;;39.25;8.00;;;;;;;5.43;55.87;102503.59;1716718;83;25957;-66
2021/10/07 02:09:15;;;;;;;22.40;7.37;;;;;;;5.42;55.91;102502.73;1711670;83;25814;-66
2021/10/07 02:11:42;;;;;;;29.30;8.90;;;;;;;5.43;55.94;102515.16;1729065;82;25808;-66
2021/10/07 02:14:09;;;;;;;35.00;8.20;;;;;;;5.40;56.04;102509.06;1721374;80;25796;-66
2021/10/07 02:16:36;;;;;;;36.65;7.65;;;;;;;5.38;56.18;102510.92;1710929;83;27480;-67
2021/10/07 02:19:03;;;;;;;32.67;7.67;;;;;;;5.36;56.24;102505.66;1715821;83;26599;-66
2021/10/07 02:21:30;;;;;;;24.65;7.72;;;;;;;5.35;56.30;102506.58;1721259;83;25787;-66
2021/10/07 02:23:57;;;;;;;26.90;8.48;;;;;;;5.34;56.42;102507.50;1713716;83;25879;-67
2021/10/07 02:26:25;;;;;;;28.98;9.88;;;;;;;5.33;56.22;102508.43;1713687;83;25822;-66
2021/10/07 02:28:52;;;;;;;31.90;7.53;;;;;;;5.31;56.34;102513.84;1713460;83;28285;-66
2021/10/07 02:31:19;;;;;;;27.70;7.62;;;;;;;5.29;56.32;102515.69;1713467;83;25790;-66
2021/10/07 02:33:47;;;;;;;48.78;9.63;;;;;;;5.29;56.30;102517.02;1713340;83;25928;-65
2021/10/07 02:36:16;;;;;;;35.23;7.65;;;;;;;5.28;56.29;102515.28;1713312;83;26499;-64
2021/10/07 02:38:43;;;;;;;27.02;7.30;;;;;;;5.24;56.37;102517.67;1712707;83;25944;-66
2021/10/07 02:41:10;;;;;;;30.30;7.87;;;;;;;5.22;56.57;102523.52;1711839;83;27393;-66
2021/10/07 02:43:37;;;;;;;27.48;8.30;;;;;;;5.24;56.88;102527.02;1681015;83;25825;-65
2021/10/07 02:46:04;;;;;;;45.15;8.90;;;;;;;5.29;57.26;102522.84;1692034;83;25815;-65
2021/10/07 02:48:31;;;;;;;32.55;8.35;;;;;;;5.35;57.58;102526.59;1691621;83;25839;-66
2021/10/07 02:50:58;;;;;;;34.27;8.18;;;;;;;5.40;57.42;102525.08;1691810;84;25728;-66
2021/10/07 02:53:30;;;;;;;21.27;7.65;;;;;;;5.48;57.56;102526.98;1691786;84;28328;-66
2021/10/07 02:55:55;;;;;;;37.45;8.50;;;;;;;5.55;57.70;102518.28;1691648;83;26225;-65
2021/10/07 02:58:22;;;;;;;51.13;8.93;;;;;;;5.63;57.58;102522.38;1692156;84;25763;-68
2021/10/07 03:00:49;;;;;;;30.68;8.03;;;;;;;5.71;57.63;102523.41;1691807;83;26180;-65
2021/10/07 03:03:17;;;;;;;39.40;7.97;;;;;;;5.79;57.32;102521.30;1691873;83;25885;-67
2021/10/07 03:05:44;;;;;;;43.02;8.85;;;;;;;5.89;57.30;102521.78;1700279;83;28419;-66
2021/10/07 03:08:11;;;;;;;31.93;8.28;;;;;;;5.93;57.16;102522.08;1714095;83;25846;-66
2021/10/07 03:10:38;;;;;;;41.65;9.15;;;;;;;5.96;57.08;102527.27;1712366;83;26522;-64
2021/10/07 03:13:05;;;;;;;43.23;10.08;;;;;;;5.98;56.82;102528.56;1716132;82;25826;-68
2021/10/07 03:15:32;;;;;;;43.92;12.63;;;;;;;5.99;56.82;102534.77;1715583;83;26289;-68
2021/10/07 03:18:01;;;;;;;37.23;8.85;;;;;;;5.98;56.59;102539.25;1716675;83;28488;-67
2021/10/07 03:20:28;;;;;;;32.28;9.60;;;;;;;5.96;56.39;102534.43;1718678;83;25850;-67
2021/10/07 03:23:00;;;;;;;35.63;9.83;;;;;;;5.95;56.23;102530.02;1722339;82;26491;-68
2021/10/07 03:25:27;;;;;;;44.35;9.53;;;;;;;5.91;55.98;102534.62;1722345;81;25977;-66
2021/10/07 03:27:54;;;;;;;48.28;10.80;;;;;;;5.88;55.79;102540.55;1722540;81;25826;-68
2021/10/07 03:30:21;;;;;;;51.55;8.48;;;;;;;5.84;55.70;102540.26;1722285;81;29627;-67
2021/10/07 03:32:48;;;;;;;29.32;7.97;;;;;;;5.81;55.65;102542.59;1719966;83;25773;-67
2021/10/07 03:35:15;;;;;;;43.17;8.98;;;;;;;5.77;55.54;102551.20;1716448;83;25840;-66
2021/10/07 03:37:42;;;;;;;43.87;9.00;;;;;;;5.72;55.43;102559.88;1716241;83;26379;-68
2021/10/07 03:40:13;;;;;;;57.70;8.38;;;;;;;5.66;55.36;102553.89;1709618;83;25815;-65
2021/10/07 03:42:41;;;;;;;47.58;8.58;;;;;;;5.59;55.48;102558.15;1680160;85;26106;-68
2021/10/07 03:45:10;;;;;;;38.30;9.38;;;;;;;5.55;55.50;102561.00;1679619;85;25836;-66
2021/10/07 03:47:37;;;;;;;41.50;10.75;;;;;;;5.50;55.43;102562.51;1680216;85;25836;-66
2021/10/07 03:50:07;;;;;;;30.02;9.43;;;;;;;5.44;55.37;102554.27;1679801;84;25800;-67
2021/10/07 03:52:34;;;;;;;37.15;8.33;;;;;;;5.42;55.34;102553.92;1680052;85;25894;-67
2021/10/07 03:55:01;;;;;;;45.80;9.73;;;;;;;5.40;55.29;102561.11;1679674;85;27466;-68
2021/10/07 03:57:29;;;;;;;34.75;9.43;;;;;;;5.36;55.17;102559.48;1679903;85;26617;-66
2021/10/07 03:59:57;;;;;;;44.75;9.80;;;;;;;5.35;55.23;102564.41;1679829;85;25729;-66
2021/10/07 04:02:24;;;;;;;46.58;8.80;;;;;;;5.32;55.20;102563.62;1679930;85;25767;-67
2021/10/07 04:04:51;;;;;;;36.68;8.18;;;;;;;5.29;55.26;102558.38;1679957;85;25852;-68
2021/10/07 04:07:19;;;;;;;28.83;8.38;;;;;;;5.27;55.33;102561.56;1700006;82;27546;-68
2021/10/07 04:09:45;;;;;;;44.08;10.28;;;;;;;5.24;55.42;102569.71;1702071;84;25807;-68
2021/10/07 04:12:12;;;;;;;36.00;9.00;;;;;;;5.23;55.51;102572.41;1725208;82;25705;-68
2021/10/07 04:14:42;;;;;;;42.00;10.98;;;;;;;5.23;55.58;102576.41;1706301;84;25796;-66
2021/10/07 04:17:08;;;;;;;42.15;8.15;;;;;;;5.22;55.60;102581.34;1706320;82;25937;-67
2021/10/07 04:19:36;;;;;;;56.23;9.15;;;;;;;5.22;55.59;102580.89;1710619;83;27476;-66
2021/10/07 04:22:03;;;;;;;51.90;8.68;;;;;;;5.22;55.56;102586.67;1710840;83;25838;-68
2021/10/07 04:24:30;;;;;;;40.00;9.73;;;;;;;5.19;55.57;102595.67;1710510;83;26491;-67
2021/10/07 04:26:58;;;;;;;55.33;11.60;;;;;;;5.16;55.71;102587.33;1706456;83;25804;-67
2021/10/07 04:29:25;;;;;;;35.70;9.23;;;;;;;5.16;55.73;102593.11;1709634;83;26563;-67
2021/10/07 04:31:52;;;;;;;48.05;10.50;;;;;;;5.17;55.75;102594.84;1710799;83;27503;-66
2021/10/07 04:34:19;;;;;;;29.12;9.50;;;;;;;5.15;55.80;102601.59;1710979;83;25871;-67
2021/10/07 04:36:46;;;;;;;34.98;9.45;;;;;;;5.16;55.78;102609.11;1710632;83;25771;-66
2021/10/07 04:39:13;;;;;;;61.92;10.75;;;;;;;5.16;55.84;102610.45;1708381;83;26528;-68
2021/10/07 04:41:41;;;;;;;114.60;15.28;;;;;;;5.17;55.91;102617.53;1693666;84;25703;-68
2021/10/07 04:44:08;;;;;;;77.62;12.25;;;;;;;5.21;55.89;102616.95;1690665;83;27557;-68
2021/10/07 04:46:35;;;;;;;46.30;11.03;;;;;;;5.24;55.76;102616.41;1689478;84;25791;-67
2021/10/07 04:49:02;;;;;;;65.50;10.78;;;;;;;5.28;55.74;102616.69;1689350;84;25778;-66
2021/10/07 04:51:29;;;;;;;37.50;11.10;;;;;;;5.35;55.82;102615.11;1689540;84;26651;-66
2021/10/07 04:53:56;;;;;;;40.90;9.50;;;;;;;5.40;55.79;102618.02;1689425;83;25842;-68
2021/10/07 04:56:23;;;;;;;42.90;9.50;;;;;;;5.47;55.75;102622.20;1680426;83;27477;-67
2021/10/07 04:58:50;;;;;;;46.20;11.68;;;;;;;5.59;55.87;102626.23;1678269;84;25794;-67
2021/10/07 05:01:19;;;;;;;44.98;11.33;;;;;;;5.70;55.60;102623.59;1694807;83;25981;-68
2021/10/07 05:03:47;;;;;;;46.98;9.58;;;;;;;5.79;55.45;102618.78;1695343;84;25806;-67
2021/10/07 05:06:15;;;;;;;48.87;10.38;;;;;;;5.89;55.31;102623.77;1695573;83;25946;-68
2021/10/07 05:08:50;;;;;;;31.00;10.30;;;;;;;6.00;55.22;102626.04;1695303;83;27646;-67
2021/10/07 05:11:15;;;;;;;33.35;9.25;;;;;;;6.10;54.98;102622.08;1694945;83;25810;-68
2021/10/07 05:13:42;;;;;;;49.38;9.38;;;;;;;6.17;54.80;102622.70;1694141;84;25767;-66
2021/10/07 05:16:09;;;;;;;33.45;10.40;;;;;;;6.24;54.63;102622.38;1693370;84;25920;-66
2021/10/07 05:18:36;;;;;;;40.17;9.23;;;;;;;6.29;54.33;102616.84;1694579;84;26252;-66
2021/10/07 05:21:03;;;;;;;29.82;9.23;;;;;;;6.34;54.34;102622.89;1664210;84;28189;-67
2021/10/07 05:23:30;;;;;;;39.55;9.93;;;;;;;6.42;54.20;102622.55;1680957;84;25897;-67
2021/10/07 05:25:57;;;;;;;58.92;9.60;;;;;;;6.49;53.94;102620.05;1658808;84;25868;-68
2021/10/07 05:28:24;;;;;;;61.00;10.68;;;;;;;6.58;53.78;102626.36;1690860;84;25771;-67
2021/10/07 05:30:52;;;;;;;41.37;12.80;;;;;;;6.67;53.69;102631.77;1687614;83;25795;-66
2021/10/07 05:33:22;;;;;;;44.70;10.90;;;;;;;6.78;53.71;102626.43;1680617;85;28093;-68
2021/10/07 05:35:54;;;;;;;38.30;11.35;;;;;;;6.88;53.55;102627.78;1680267;84;26468;-68
2021/10/07 05:38:21;;;;;;;49.60;10.72;;;;;;;6.98;53.35;102634.92;1680665;85;25844;-66
2021/10/07 05:40:48;;;;;;;51.80;11.70;;;;;;;7.08;53.31;102636.27;1683379;83;25772;-66
2021/10/07 05:43:15;;;;;;;79.58;12.03;;;;;;;7.18;53.42;102645.63;1678109;85;27446;-68
2021/10/07 05:45:42;;;;;;;39.15;10.25;;;;;;;7.28;53.21;102652.77;1677208;85;28221;-68
2021/10/07 05:48:09;;;;;;;51.65;9.65;;;;;;;7.36;52.70;102657.31;1677001;85;25765;-68
2021/10/07 05:50:36;;;;;;;52.45;9.68;;;;;;;7.42;52.37;102660.19;1677230;85;26218;-68
2021/10/07 05:53:04;;;;;;;78.25;10.63;;;;;;;7.47;52.17;102658.19;1676810;84;27937;-68
2021/10/07 05:55:31;;;;;;;54.23;12.30;;;;;;;7.55;52.17;102665.00;1680443;85;25788;-66
2021/10/07 05:58:00;;;;;;;53.23;10.32;;;;;;;7.64;51.96;102663.24;1678264;83;27477;-68
2021/10/07 06:00:27;;;;;;;34.45;10.58;;;;;;;7.71;50.91;102667.37;1662176;86;25785;-67
2021/10/07 06:02:54;;;;;;;58.30;10.28;;;;;;;7.73;50.61;102662.82;1658978;85;26546;-66
2021/10/07 06:05:21;;;;;;;55.23;11.50;;;;;;;7.75;50.16;102668.98;1659480;86;25830;-67
2021/10/07 06:07:48;;;;;;;45.48;11.73;;;;;;;7.76;50.05;102661.80;1689534;84;25973;-67
2021/10/07 06:10:15;;;;;;;44.13;11.43;;;;;;;7.83;50.02;102664.59;1677965;84;27469;-66
2021/10/07 06:12:44;;;;;;;58.63;11.18;;;;;;;7.90;49.56;102651.78;1654532;86;25747;-67
2021/10/07 06:15:12;;;;;;;58.50;11.65;;;;;;;7.94;48.88;102652.02;1655383;86;25938;-66
2021/10/07 06:17:40;;;;;;;48.23;9.88;;;;;;;7.99;49.19;102651.34;1688084;84;26490;-65
2021/10/07 06:20:29;;;;;;;45.28;10.85;;;;;;;8.07;48.83;102651.84;1680816;84;25795;-67
2021/10/07 06:22:53;;;;;;;50.10;11.60;;;;;;;8.13;48.41;102646.18;1679050;85;28402;-66
2021/10/07 06:25:22;;;;;;;30.20;10.05;;;;;;;8.22;48.38;102651.58;1679750;84;25950;-66
2021/10/07 06:27:50;;;;;;;42.88;12.03;;;;;;;8.32;48.38;102656.50;1673383;84;25839;-67
2021/10/07 06:30:19;;;;;;;43.45;11.15;;;;;;;8.36;48.26;102654.93;1679563;84;25781;-67
2021/10/07 06:32:49;;;;;;;45.63;12.18;;;;;;;8.45;47.98;102648.23;1679708;84;25809;-68
2021/10/07 06:35:17;;;;;;;42.17;10.18;;;;;;;8.54;47.80;102647.80;1679350;84;27474;-68
2021/10/07 06:37:44;;;;;;;43.02;11.90;;;;;;;8.64;47.35;102640.63;1679508;85;25714;-67
2021/10/07 06:40:13;;;;;;;55.17;12.33;;;;;;;8.73;47.39;102641.51;1677314;84;25780;-67
2021/10/07 06:42:40;;;;;;;46.83;11.35;;;;;;;8.80;46.95;102642.92;1674222;85;25828;-68
2021/10/07 06:45:08;;;;;;;41.85;12.00;;;;;;;8.84;45.96;102647.20;1676525;85;25971;-66
2021/10/07 06:47:37;;;;;;;51.73;12.73;;;;;;;8.83;45.98;102644.61;1676544;85;27448;-67
2021/10/07 06:50:07;;;;;;;43.05;11.05;;;;;;;8.87;46.44;102652.88;1708377;83;25822;-66
2021/10/07 06:52:34;;;;;;;47.98;13.30;;;;;;;8.98;45.98;102646.49;1708664;83;25893;-65
2021/10/07 06:55:12;;;;;;;51.13;11.83;;;;;;;9.06;45.86;102636.67;1708436;83;25879;-67
2021/10/07 06:57:39;;;;;;;51.95;12.45;;;;;;;9.13;45.68;102636.77;1677627;84;25852;-68
2021/10/07 07:00:10;;;;;;;41.15;10.90;;;;;;;9.27;44.67;102643.22;1701785;82;27463;-68
2021/10/07 07:02:38;;;;;;;38.35;11.55;;;;;;;9.37;45.13;102638.60;1702509;83;25787;-65
2021/10/07 07:05:09;;;;;;;54.70;11.78;;;;;;;9.51;45.02;102638.34;1706549;84;25754;-66
2021/10/07 07:07:36;;;;;;;72.08;15.00;;;;;;;9.61;44.73;102640.94;1712590;82;25823;-68
2021/10/07 07:10:05;;;;;;;41.75;12.50;;;;;;;9.66;43.48;102641.53;1712402;82;25776;-67
2021/10/07 07:12:32;;;;;;;45.98;12.13;;;;;;;9.73;44.17;102644.76;1718146;82;27463;-67
2021/10/07 07:14:59;;;;;;;27.85;10.40;;;;;;;9.86;43.75;102635.53;1705728;84;25806;-68
2021/10/07 07:17:26;;;;;;;39.38;11.75;;;;;;;9.91;43.55;102632.59;1706753;83;25751;-67
2021/10/07 07:19:53;;;;;;;53.13;11.22;;;;;;;9.98;43.93;102640.23;1711168;82;25954;-68
2021/10/07 07:22:20;;;;;;;38.08;11.25;;;;;;;10.08;43.52;102635.69;1703160;83;25885;-67
2021/10/07 07:24:49;;;;;;;55.35;13.32;;;;;;;10.17;43.21;102640.55;1701825;82;27388;-67
2021/10/07 07:27:16;;;;;;;41.63;11.93;;;;;;;10.28;42.91;102650.18;1702075;84;25902;-68
2021/10/07 07:29:43;;;;;;;43.25;11.15;;;;;;;10.43;42.36;102644.92;1701862;84;26019;-68
2021/10/07 07:32:11;;;;;;;44.20;12.95;;;;;;;10.53;41.21;102647.94;1701754;83;26484;-67
2021/10/07 07:34:38;;;;;;;42.83;11.28;;;;;;;10.57;41.02;102650.36;1701773;82;25761;-68
2021/10/07 07:37:06;;;;;;;39.98;10.90;;;;;;;10.64;41.56;102647.69;1701553;82;28258;-68
2021/10/07 07:39:35;;;;;;;44.27;11.25;;;;;;;10.76;41.77;102652.81;1701629;84;25844;-67
2021/10/07 07:42:04;;;;;;;38.20;10.70;;;;;;;10.84;41.66;102646.98;1723850;81;25816;-68
2021/10/07 07:44:31;;;;;;;44.90;12.55;;;;;;;10.90;41.63;102649.30;1734839;82;26466;-67
2021/10/07 07:46:58;;;;;;;41.18;10.70;;;;;;;10.96;41.25;102650.77;1735107;82;25727;-67
2021/10/07 07:49:25;;;;;;;51.55;11.60;;;;;;;10.98;41.55;102646.16;1725777;82;28268;-66
2021/10/07 07:51:52;;;;;;;44.40;10.48;;;;;;;11.05;40.98;102644.81;1716463;81;25826;-67
2021/10/07 07:54:19;;;;;;;36.73;9.55;;;;;;;11.11;41.36;102639.55;1716399;83;25822;-67
2021/10/07 07:56:46;;;;;;;39.15;9.43;;;;;;;11.19;40.51;102642.63;1716386;83;25799;-69
2021/10/07 07:59:13;;;;;;;37.58;9.25;;;;;;;11.28;40.67;102646.11;1716547;83;25757;-66
2021/10/07 08:01:43;;;;;;;32.20;8.85;;;;;;;11.40;39.75;102653.05;1716353;83;27540;-68
2021/10/07 08:04:13;;;;;;;37.70;8.85;;;;;;;11.43;39.42;102644.30;1715818;82;25806;-67
2021/10/07 08:06:40;;;;;;;41.60;9.58;;;;;;;11.52;39.76;102643.33;1716541;83;25792;-67
2021/10/07 08:09:08;;;;;;;37.40;8.73;;;;;;;11.65;39.72;102644.77;1716408;83;25795;-66
2021/10/07 08:11:39;;;;;;;35.80;8.10;;;;;;;11.80;39.92;102643.78;1728663;80;25919;-67
2021/10/07 08:14:08;;;;;;;41.18;8.38;;;;;;;11.87;38.82;102633.47;1722144;83;46332;-67
2021/10/07 08:16:36;;;;;;;35.35;9.90;;;;;;;11.92;38.42;102635.41;1721334;83;25988;-67
2021/10/07 08:19:03;;;;;;;37.45;9.35;;;;;;;11.99;39.18;102641.28;1722563;81;25761;-68
2021/10/07 08:21:30;;;;;;;34.15;9.38;;;;;;;12.11;38.67;102646.35;1688519;84;25868;-67
2021/10/07 08:23:58;;;;;;;27.93;8.70;;;;;;;12.19;38.74;102648.09;1687379;83;25848;-67
2021/10/07 08:26:25;;;;;;;57.05;9.68;;;;;;;12.22;38.08;102650.56;1687848;83;28387;-65
2021/10/07 08:28:52;;;;;;;34.00;9.70;;;;;;;12.25;38.49;102650.84;1710083;83;25797;-67
2021/10/07 08:31:19;;;;;;;40.12;8.20;;;;;;;12.33;38.79;102647.15;1710218;83;25759;-66
2021/10/07 08:33:46;;;;;;;41.70;8.88;;;;;;;12.49;38.77;102647.00;1710014;83;27929;-69
2021/10/07 08:36:14;;;;;;;30.60;7.45;;;;;;;12.63;38.12;102647.43;1715310;83;25957;-67
2021/10/07 08:38:41;;;;;;;37.05;7.90;;;;;;;12.63;38.50;102655.53;1716519;83;28229;-67
2021/10/07 08:41:08;;;;;;;29.67;8.08;;;;;;;12.65;38.23;102637.40;1716438;83;25782;-66
2021/10/07 08:43:36;;;;;;;47.05;9.23;;;;;;;12.81;38.39;102647.53;1742124;82;25723;-66
2021/10/07 08:46:10;;;;;;;35.60;7.47;;;;;;;12.94;38.43;102645.34;1742286;81;26264;-67
2021/10/07 08:48:37;;;;;;;35.38;6.92;;;;;;;13.10;37.97;102640.61;1719585;82;25811;-67
2021/10/07 08:51:04;;;;;;;47.30;7.87;;;;;;;13.24;37.79;102640.11;1718432;82;27434;-68
2021/10/07 08:53:32;;;;;;;38.08;8.18;;;;;;;13.35;37.11;102641.58;1716115;83;25790;-67
2021/10/07 08:56:01;;;;;;;35.10;7.25;;;;;;;13.44;37.37;102641.46;1716301;83;25777;-68
2021/10/07 08:58:29;;;;;;;33.05;7.47;;;;;;;13.62;37.41;102643.32;1715888;83;26495;-69
2021/10/07 09:00:58;;;;;;;33.98;6.80;;;;;;;13.76;36.32;102640.47;1714233;83;25787;-67
2021/10/07 09:03:25;;;;;;;26.82;6.90;;;;;;;13.86;35.95;102640.69;1716049;83;28349;-69
2021/10/07 09:06:13;;;;;;;31.60;7.22;;;;;;;13.96;36.55;102631.39;1716208;83;25855;-68
2021/10/07 09:08:47;;;;;;;35.28;7.87;;;;;;;14.16;36.20;102634.00;1716066;83;26590;-67
2021/10/07 09:11:28;;;;;;;25.80;8.18;;;;;;;14.29;35.98;102633.06;1707688;83;26221;-65
2021/10/07 09:14:01;;;;;;;31.30;8.05;;;;;;;14.46;36.31;102633.16;1722112;81;25889;-68
2021/10/07 09:16:47;;;;;;;26.57;7.42;;;;;;;14.70;36.15;102632.66;1721845;81;27475;-67
2021/10/07 09:19:25;;;;;;;30.57;7.58;;;;;;;14.81;36.47;102625.05;1721430;81;26407;-66
2021/10/07 09:22:18;;;;;;;37.65;7.80;;;;;;;14.93;35.13;102627.30;1721438;83;25926;-67
2021/10/07 09:24:59;;;;;;;35.23;8.25;;;;;;;14.95;35.75;102625.84;1721302;83;26490;-66
2021/10/07 09:27:33;;;;;;;35.17;6.83;;;;;;;15.18;35.13;102623.53;1720843;83;25901;-68
2021/10/07 09:30:08;;;;;;;31.80;6.37;;;;;;;15.37;35.42;102623.94;1721174;83;27506;-68
2021/10/07 09:32:43;;;;;;;38.00;7.75;;;;;;;15.63;34.57;102616.40;1721291;83;25715;-67
2021/10/07 09:35:16;;;;;;;31.50;7.83;;;;;;;15.73;34.09;102620.59;1722092;81;26181;-67
2021/10/07 09:37:56;;;;;;;38.38;8.30;;;;;;;15.96;34.01;102614.17;1721731;83;25807;-70
2021/10/07 09:40:36;;;;;;;45.92;7.08;;;;;;;16.64;33.84;102608.11;1687955;83;25835;-68
2021/10/07 09:43:07;;;;;;;32.65;7.12;;;;;;;17.98;33.43;102608.61;1727947;81;27573;-69
2021/10/07 09:45:35;;;;;;;27.80;7.12;;;;;;;19.15;30.44;102600.04;1730928;81;25804;-69
2021/10/07 09:48:07;;;;;;;38.80;6.37;;;;;;;19.83;30.41;102589.81;1704918;83;25767;-68
2021/10/07 09:50:44;;;;;;;41.15;7.17;;;;;;;20.62;29.43;102584.11;1702351;82;26456;-68
2021/10/07 09:53:16;;;;;;;21.23;5.97;;;;;;;21.36;28.33;102578.78;1701930;82;25855;-69
2021/10/07 09:55:49;;;;;;;46.00;6.25;;;;;;;22.02;26.54;102574.91;1701467;83;28120;-66
2021/10/07 09:58:23;;;;;;;28.83;5.45;;;;;;;22.42;26.96;102580.13;1701782;84;25797;-69
2021/10/07 10:00:57;;;;;;;34.63;6.33;;;;;;;23.04;26.66;102571.81;1701836;84;25846;-70
2021/10/07 10:03:25;;;;;;;25.82;5.35;;;;;;;23.74;25.06;102571.55;1701901;84;25776;-69
2021/10/07 10:05:53;;;;;;;33.92;5.87;;;;;;;24.04;24.06;102561.26;1701706;83;25850;-69
2021/10/07 10:08:28;;;;;;;41.55;7.15;;;;;;;24.32;24.25;102561.58;1701569;82;27515;-70
2021/10/07 10:10:57;;;;;;;35.95;5.97;;;;;;;24.63;23.59;102557.01;1690354;82;25953;-70
2021/10/07 10:13:24;;;;;;;31.93;5.72;;;;;;;24.94;23.72;102558.77;1734303;81;26212;-68
2021/10/07 10:15:52;;;;;;;59.38;5.90;;;;;;;25.31;21.36;102556.96;1733826;82;25878;-69
2021/10/07 10:18:19;;;;;;;36.35;6.12;;;;;;;25.39;22.89;102554.13;1734600;82;25806;-69
2021/10/07 10:20:53;;;;;;;20.17;5.45;;;;;;;25.89;21.42;102553.45;1734350;81;28110;-70
2021/10/07 10:23:25;;;;;;;27.37;5.83;;;;;;;25.83;21.69;102548.20;1734213;82;25818;-68
2021/10/07 10:26:32;;;;;;;25.70;5.95;;;;;;;26.18;20.26;102548.37;1730149;82;25855;-68
2021/10/07 10:29:11;;;;;;;34.83;5.47;;;;;;;26.19;21.83;102542.31;1678498;83;26028;-72
2021/10/07 10:31:42;;;;;;;25.35;5.05;;;;;;;26.49;21.02;102539.39;1679581;85;25947;-68
2021/10/07 10:34:17;;;;;;;23.12;5.08;;;;;;;26.91;20.94;102533.98;1700558;83;27611;-69
2021/10/07 10:36:55;;;;;;;24.05;5.22;;;;;;;27.15;20.68;102535.41;1706840;83;25952;-69
2021/10/07 10:39:36;;;;;;;37.08;5.08;;;;;;;27.33;20.32;102530.17;1710549;83;26562;-69
2021/10/07 10:42:17;;;;;;;21.52;4.47;;;;;;;27.82;19.16;102528.75;1704174;83;25794;-68
2021/10/07 10:44:56;;;;;;;34.30;5.67;;;;;;;27.86;18.89;102527.80;1694173;84;25816;-70
2021/10/07 10:47:32;;;;;;;25.62;4.92;;;;;;;27.86;19.22;102521.75;1695045;84;27497;-69
2021/10/07 10:50:17;;;;;;;30.70;4.78;;;;;;;27.84;19.37;102522.48;1696551;84;25756;-69
2021/10/07 10:52:52;;;;;;;26.60;4.47;;;;;;;28.13;18.90;102516.80;1666304;84;26039;-70
2021/10/07 10:55:27;;;;;;;36.40;5.45;;;;;;;28.13;19.00;102518.17;1684825;84;26498;-69
2021/10/07 10:58:04;;;;;;;26.20;4.92;;;;;;;28.06;19.04;102518.16;1676729;84;25804;-69
2021/10/07 11:00:42;;;;;;;26.35;4.58;;;;;;;27.87;18.29;102525.35;1682059;84;28156;-69
2021/10/07 11:03:26;;;;;;;26.40;4.62;;;;;;;27.75;18.65;102528.72;1676271;84;26177;-69
2021/10/07 11:05:58;;;;;;;;;;;;;;;27.99;18.62;102522.81;1688747;84;26608;-69
2021/10/07 11:08:25;;;;;;;31.00;4.62;;;;;;;28.13;18.91;102516.28;1680171;84;31475;-68
2021/10/07 11:10:57;;;;;;;31.15;4.17;;;;;;;27.98;18.29;102524.73;1681027;83;25768;-67
2021/10/07 11:13:27;;;;;;;35.73;4.75;;;;;;;27.64;18.40;102522.45;1683506;83;27425;-69
2021/10/07 11:16:04;;;;;;;24.15;4.60;;;;;;;27.19;18.51;102521.48;1685775;84;25836;-68
2021/10/07 11:18:35;;;;;;;26.57;4.90;;;;;;;27.18;18.54;102526.17;1681025;84;26240;-68
2021/10/07 11:21:17;;;;;;;46.80;7.05;;;;;;;27.11;19.14;102523.91;1681186;84;26416;-68
2021/10/07 11:23:49;;;;;;;26.77;5.30;;;;;;;27.03;18.71;102520.78;1679848;84;25835;-69
2021/10/07 11:26:19;;;;;;;28.63;3.87;;;;;;;26.56;19.03;102515.45;1680790;83;27909;-68
2021/10/07 11:28:49;;;;;;;20.20;4.00;;;;;;;26.47;19.15;102509.25;1678634;84;25821;-70
2021/10/07 11:31:20;;;;;;;25.92;4.72;;;;;;;26.21;19.05;102513.50;1679037;84;25715;-67